»·PEaware :: N123VT KLAX-KSAN

N123VT :: KLAX-KSAN

FLIGHT INFORMATION

Flight Status: Arrived
Operator: Privately registered:
United States
More flights under this callsign
Pilot: Gopalakrishna Pillai Sulekha S. (22834)
Aircraft: BEECH AIRCRAFT BARON
(BE58)
More flights by this aircraft type
Origin: KLAX Los Angeles Intl
United States
Destination: KSAN San Diego Intl-Lindbergh
United States
More flights between these airports :: More routes between these airports
Route: +
File this flight plan on PilotEdge
Remarks:
Altitude:
(Current/Filed)
3,000ft
Speed:
(Current/Filed)
0kts
Departed: 30-Dec-19 09:12 PM
Arrived: 30-Dec-19 09:58 PM
Distance/Time
Traveled:
95nm/0:46
Distance/Time
To Go:
Arrived

Flight Plot

Page will automatically refresh every two minutes.


Map Options




Map Legend


Flown Route
Filed Route
Departure Airport
Arrival Airport
Navaid (VOR, NDB)
Fix

Horizontal Profiles

Position Reports

Time Latitude Longitude Heading Altitude Ground
Speed
30-Dec-19 21:04 33.933644 -118.399304 174 111ft 0kts
30-Dec-19 21:05 33.933644 -118.399304 174 111ft 0kts
30-Dec-19 21:06 33.933644 -118.399304 174 111ft 0kts
30-Dec-19 21:07 33.933551 -118.399179 92 111ft 8kts
30-Dec-19 21:08 33.935081 -118.393008 83 102ft 30kts
30-Dec-19 21:09 33.936334 -118.382868 30 96ft 15kts
30-Dec-19 21:10 33.936511 -118.382813 356 96ft 0kts
30-Dec-19 21:11 33.936166 -118.394640 263 384ft 102kts
30-Dec-19 21:12 33.932395 -118.442609 266 1509ft 153kts
30-Dec-19 21:13 33.917941 -118.477695 176 2344ft 113kts
30-Dec-19 21:14 33.889211 -118.476140 172 3228ft 102kts
30-Dec-19 21:15 33.857915 -118.463182 144 3528ft 147kts
30-Dec-19 21:16 33.823662 -118.432326 104 3349ft 162kts
30-Dec-19 21:17 33.830881 -118.379264 89 3077ft 160kts
30-Dec-19 21:18 33.820903 -118.326915 94 3103ft 163kts
30-Dec-19 21:19 33.815125 -118.274929 114 3074ft 157kts
30-Dec-19 21:20 33.787129 -118.235650 137 3143ft 157kts
30-Dec-19 21:21 33.752723 -118.201283 136 3185ft 155kts
30-Dec-19 21:22 33.720625 -118.164915 132 3261ft 150kts
30-Dec-19 21:23 33.690150 -118.128396 131 3443ft 152kts
30-Dec-19 21:24 33.658721 -118.090721 131 3464ft 154kts
30-Dec-19 21:25 33.627806 -118.053657 131 3519ft 154kts
30-Dec-19 21:26 33.596534 -118.016231 131 3482ft 158kts
30-Dec-19 21:27 33.565329 -117.978912 131 3472ft 157kts
30-Dec-19 21:28 33.534286 -117.941548 131 3450ft 158kts
30-Dec-19 21:29 33.503224 -117.904321 131 3496ft 155kts
30-Dec-19 21:30 33.472165 -117.866978 131 3472ft 156kts
30-Dec-19 21:31 33.439440 -117.830592 133 3445ft 159kts
30-Dec-19 21:32 33.406839 -117.794613 133 3469ft 158kts
30-Dec-19 21:33 33.374444 -117.758762 133 3489ft 155kts
30-Dec-19 21:34 33.342410 -117.723332 133 3464ft 156kts
30-Dec-19 21:35 33.310178 -117.687600 133 3439ft 157kts
30-Dec-19 21:36 33.277924 -117.651728 133 3453ft 155kts
30-Dec-19 21:37 33.244632 -117.614959 133 3483ft 155kts
30-Dec-19 21:38 33.212482 -117.579357 133 3473ft 155kts
30-Dec-19 21:39 33.180558 -117.544003 133 3473ft 155kts
30-Dec-19 21:40 33.152351 -117.513109 133 3451ft 123kts
30-Dec-19 21:41 33.127145 -117.486113 133 3565ft 117kts
30-Dec-19 21:42 33.102536 -117.460205 133 3664ft 117kts
30-Dec-19 21:43 33.077962 -117.433506 129 3682ft 120kts
30-Dec-19 21:44 33.054381 -117.403431 128 3606ft 124kts
30-Dec-19 21:45 33.030264 -117.373157 131 3548ft 124kts
30-Dec-19 21:46 33.005335 -117.344867 133 3551ft 123kts
30-Dec-19 21:47 32.975894 -117.323105 149 3555ft 126kts
30-Dec-19 21:48 32.944555 -117.304347 147 3543ft 127kts
30-Dec-19 21:49 32.913694 -117.283547 144 3568ft 129kts
30-Dec-19 21:50 32.882244 -117.261073 144 3335ft 143kts
30-Dec-19 21:51 32.848730 -117.236487 144 1843ft 128kts
30-Dec-19 21:52 32.820547 -117.215632 146 1194ft 122kts
30-Dec-19 21:53 32.789263 -117.197073 165 1118ft 128kts
30-Dec-19 21:54 32.754508 -117.190646 138 1076ft 122kts
30-Dec-19 21:55 32.743222 -117.160276 154 739ft 91kts
30-Dec-19 21:56 32.730934 -117.178787 289 77ft 85kts
30-Dec-19 21:57 32.733852 -117.188120 16 17ft 0kts
30-Dec-19 21:58 32.733110 -117.183090 106 17ft 32kts
30-Dec-19 21:59 32.733065 -117.179287 345 20ft 0kts

Navigation Log

Ident Type
Flight plan parsing failed, navigation log unavailable